»·PEaware :: SWA413 KJAC-KGJT

SWA413 :: KJAC-KGJT

FLIGHT INFORMATION

Flight Status: Arrived
Operator:
Southwest Airlines
More flights by this operator :: More flights under this callsign
Pilot: Sanjiv S. (4490)
Aircraft: BOEING 737-800
(B738)
More flights by this aircraft type
Origin: KJAC Jackson Hole
United States
Destination: KGJT Walker
United States
More flights between these airports :: More routes between these airports
Route: ALPIN2 SWEAT BONGO
File this flight plan on PilotEdge
Remarks:
Altitude:
(Current/Filed)
33,000ft
Speed:
(Current/Filed)
450kts
Departed: 11-Nov-17 11:07 PM
Arrived: 12-Nov-17 12:15 AM
Distance/Time
Traveled:
287nm/1:08
Distance/Time
To Go:
Arrived

Flight Plot

Page will automatically refresh every two minutes.

Flight plan parsing failed; only flown route is shown


Map Options




Map Legend


Flown Route
Filed Route
Departure Airport
Arrival Airport
Navaid (VOR, NDB)
Fix

Horizontal Profiles

Position Reports

Time Latitude Longitude Heading Altitude Ground
Speed
11-Nov-17 22:40 43.604658 -110.736535 0 6459ft 0kts
11-Nov-17 22:41 43.604658 -110.736535 109 6459ft 0kts
11-Nov-17 22:42 43.604658 -110.736535 109 6459ft 0kts
11-Nov-17 22:43 43.604658 -110.736535 109 6459ft 0kts
11-Nov-17 22:44 43.604658 -110.736535 109 6459ft 0kts
11-Nov-17 22:45 43.604658 -110.736535 109 6459ft 0kts
11-Nov-17 22:46 43.604658 -110.736535 109 6459ft 0kts
11-Nov-17 22:47 43.604658 -110.736535 109 6459ft 0kts
11-Nov-17 22:48 43.604658 -110.736535 109 6459ft 0kts
11-Nov-17 22:49 43.604658 -110.736535 109 6459ft 0kts
11-Nov-17 22:50 43.604658 -110.736535 109 6459ft 0kts
11-Nov-17 22:51 43.604658 -110.736535 109 6459ft 0kts
11-Nov-17 22:52 43.604658 -110.736535 109 6459ft 0kts
11-Nov-17 22:53 43.604658 -110.736535 109 6459ft 0kts
11-Nov-17 22:54 43.604658 -110.736535 109 6459ft 0kts
11-Nov-17 22:55 43.604658 -110.736535 109 6459ft 0kts
11-Nov-17 22:56 43.604658 -110.736535 109 6459ft 0kts
11-Nov-17 22:57 43.604658 -110.736535 109 6459ft 0kts
11-Nov-17 22:58 43.604658 -110.736535 109 6459ft 0kts
11-Nov-17 22:59 43.604658 -110.736535 109 6459ft 0kts
11-Nov-17 23:00 43.604658 -110.736535 109 6459ft 0kts
11-Nov-17 23:01 43.604658 -110.736535 109 6459ft 0kts
11-Nov-17 23:02 43.604658 -110.736535 109 6459ft 0kts
11-Nov-17 23:03 43.604658 -110.736535 109 6459ft 0kts
11-Nov-17 23:04 43.604658 -110.736536 109 6459ft 0kts
11-Nov-17 23:05 43.604763 -110.736978 92 6459ft 2kts
11-Nov-17 23:06 43.604491 -110.737551 17 6459ft 1kts
11-Nov-17 23:07 43.604453 -110.737568 19 6458ft 0kts
11-Nov-17 23:08 43.605084 -110.737263 18 6459ft 13kts
11-Nov-17 23:09 43.609530 -110.735155 20 6458ft 16kts
11-Nov-17 23:10 43.613944 -110.732945 20 6458ft 19kts
11-Nov-17 23:11 43.614694 -110.734182 197 6459ft 8kts
11-Nov-17 23:12 43.584796 -110.746732 194 7207ft 191kts
11-Nov-17 23:13 43.528762 -110.776102 209 8562ft 286kts
11-Nov-17 23:14 43.472282 -110.840698 232 12713ft 272kts
11-Nov-17 23:15 43.398754 -110.893367 193 15084ft 321kts
11-Nov-17 23:16 43.315216 -110.932802 202 18362ft 330kts
11-Nov-17 23:17 43.228012 -110.965912 171 21205ft 353kts
11-Nov-17 23:18 43.145972 -110.885455 140 23679ft 384kts
11-Nov-17 23:19 43.069692 -110.782900 139 25848ft 403kts
11-Nov-17 23:20 42.990238 -110.674175 139 28010ft 416kts
11-Nov-17 23:21 42.908237 -110.561724 139 30040ft 424kts
11-Nov-17 23:22 42.828118 -110.451703 139 31859ft 429kts
11-Nov-17 23:23 42.745311 -110.337850 140 33329ft 436kts
11-Nov-17 23:24 42.657915 -110.217452 139 33345ft 471kts
11-Nov-17 23:25 42.569947 -110.078331 117 33332ft 506kts
11-Nov-17 23:26 42.556577 -109.892073 88 33335ft 508kts
11-Nov-17 23:27 42.544485 -109.702621 96 33339ft 508kts
11-Nov-17 23:28 42.528248 -109.512839 96 33343ft 509kts
11-Nov-17 23:29 42.512396 -109.324508 96 33320ft 509kts
11-Nov-17 23:30 42.496933 -109.136688 96 33291ft 509kts
11-Nov-17 23:31 42.481505 -108.946149 95 33292ft 510kts
11-Nov-17 23:32 42.466372 -108.755148 94 33295ft 510kts
11-Nov-17 23:33 42.451497 -108.564874 96 33292ft 510kts
11-Nov-17 23:34 42.360329 -108.441114 179 33306ft 471kts
11-Nov-17 23:35 42.246742 -108.491658 231 33299ft 421kts
11-Nov-17 23:36 42.142326 -108.569057 204 33311ft 446kts
11-Nov-17 23:37 42.023780 -108.616594 203 33317ft 448kts
11-Nov-17 23:38 41.904410 -108.663075 203 33317ft 448kts
11-Nov-17 23:39 41.791910 -108.706847 203 33313ft 448kts
11-Nov-17 23:40 41.673358 -108.752983 203 33313ft 448kts
11-Nov-17 23:41 41.553852 -108.799500 203 33313ft 448kts
11-Nov-17 23:42 41.434760 -108.845869 203 33312ft 448kts
11-Nov-17 23:43 41.314862 -108.892558 203 33313ft 448kts
11-Nov-17 23:44 41.196542 -108.938646 203 33313ft 448kts
11-Nov-17 23:45 41.078618 -108.984556 204 33312ft 445kts
11-Nov-17 23:46 40.962367 -109.029818 206 33309ft 433kts
11-Nov-17 23:47 40.856818 -109.071013 206 33302ft 431kts
11-Nov-17 23:48 40.742493 -109.115582 206 33299ft 430kts
11-Nov-17 23:49 40.628535 -109.160016 206 33300ft 429kts
11-Nov-17 23:50 40.514844 -109.204346 206 33298ft 427kts
11-Nov-17 23:51 40.401313 -109.248574 205 33287ft 426kts
11-Nov-17 23:52 40.285834 -109.273829 198 30308ft 422kts
11-Nov-17 23:53 40.172445 -109.306771 201 26040ft 418kts
11-Nov-17 23:54 40.061093 -109.331991 177 22109ft 412kts
11-Nov-17 23:55 39.952513 -109.304039 170 18652ft 393kts
11-Nov-17 23:56 39.852975 -109.274560 168 15287ft 378kts
11-Nov-17 23:57 39.752732 -109.244533 167 11822ft 367kts
11-Nov-17 23:58 39.660651 -109.216957 169 11553ft 303kts
11-Nov-17 23:59 39.582796 -109.227843 189 10866ft 287kts
12-Nov-17 00:00 39.510040 -109.243815 189 10993ft 256kts
12-Nov-17 00:01 39.441438 -109.259081 189 10008ft 245kts
12-Nov-17 00:02 39.377623 -109.272712 180 9980ft 231kts
12-Nov-17 00:03 39.314250 -109.259426 165 9988ft 232kts
12-Nov-17 00:04 39.253592 -109.231302 160 9995ft 232kts
12-Nov-17 00:05 39.193029 -109.202678 160 9998ft 232kts
12-Nov-17 00:06 39.132365 -109.173757 160 9989ft 232kts
12-Nov-17 00:07 39.076794 -109.134838 121 9980ft 237kts
12-Nov-17 00:08 39.094605 -109.062326 26 8702ft 243kts
12-Nov-17 00:09 39.156543 -109.029879 22 8196ft 242kts
12-Nov-17 00:10 39.216334 -108.999364 22 8177ft 209kts
12-Nov-17 00:11 39.260741 -108.955860 60 8209ft 205kts
12-Nov-17 00:12 39.279076 -108.888856 82 8200ft 201kts
12-Nov-17 00:13 39.278581 -108.817650 99 8200ft 198kts
12-Nov-17 00:14 39.252852 -108.760379 125 6902ft 187kts
12-Nov-17 00:15 39.225290 -108.709171 125 6696ft 166kts
12-Nov-17 00:16 39.198712 -108.660501 126 6697ft 166kts
12-Nov-17 00:17 39.174085 -108.615547 125 6046ft 140kts
12-Nov-17 00:18 39.152778 -108.576745 121 5475ft 132kts
12-Nov-17 00:19 39.131712 -108.538285 124 4865ft 109kts
12-Nov-17 00:20 39.127417 -108.530536 125 4865ft 12kts
12-Nov-17 00:21 39.125204 -108.530594 153 4865ft 9kts
12-Nov-17 00:22 39.123708 -108.528210 182 4865ft 0kts
12-Nov-17 00:23 39.123373 -108.528921 251 4865ft 0kts
12-Nov-17 00:24 39.123373 -108.528921 251 4865ft 0kts

Navigation Log

Ident Type
Flight plan parsing failed, navigation log unavailable